Time;durP1;ratioP1;P1;durP2;ratioP2;P2;SDS_P1;SDS_P2;PMS_P1;PMS_P2;Temp;Humidity;BMP_temperature;BMP_pressure;BME280_temperature;BME280_humidity;BME280_pressure;Samples;Min_cycle;Max_cycle;Signal;HPM_P1;HPM_P2
2023/04/15 00:00:14;;;;;;;;;16.00;13.00;;;;;11.33;100.00;100006.53;5075718;28;45458;-70
2023/04/15 00:02:40;;;;;;;;;15.67;15.67;;;;;11.38;100.00;100010.25;5075835;27;46892;-68
2023/04/15 00:05:06;;;;;;;;;14.33;12.33;;;;;11.30;100.00;99996.84;5087430;27;47123;-69
2023/04/15 00:07:32;;;;;;;;;18.67;16.33;;;;;11.30;100.00;99997.69;5087910;27;47781;-69
2023/04/15 00:09:58;;;;;;;;;19.67;16.00;;;;;11.26;100.00;99982.75;5059483;27;45685;-70
2023/04/15 00:12:24;;;;;;;;;17.00;16.67;;;;;11.14;100.00;99984.63;5074059;27;45765;-69
2023/04/15 00:14:50;;;;;;;;;18.67;17.67;;;;;11.15;100.00;99985.44;5074675;27;45613;-69
2023/04/15 00:17:16;;;;;;;;;18.00;14.67;;;;;11.03;100.00;99950.56;5074941;27;45633;-69
2023/04/15 00:19:43;;;;;;;;;12.00;10.00;;;;;11.20;100.00;99969.13;5073789;27;45462;-70
2023/04/15 00:22:09;;;;;;;;;15.33;14.33;;;;;11.23;100.00;99974.16;5061950;28;45910;-69
2023/04/15 00:24:34;;;;;;;;;19.00;14.67;;;;;11.28;100.00;99955.06;5071909;28;45827;-69
2023/04/15 00:26:59;;;;;;;;;20.00;16.67;;;;;11.31;100.00;99960.09;5074084;28;45682;-70
2023/04/15 00:29:25;;;;;;;;;15.33;14.67;;;;;11.32;100.00;99950.78;5073997;27;45616;-68
2023/04/15 00:31:51;;;;;;;;;21.67;18.67;;;;;11.38;100.00;99958.09;5074263;28;45493;-68
2023/04/15 00:34:22;;;;;;;;;12.67;12.67;;;;;11.41;100.00;99960.38;5067803;27;46037;-65
2023/04/15 00:36:49;;;;;;;;;17.33;15.67;;;;;11.34;100.00;99945.06;5056116;28;45696;-67
2023/04/15 00:39:15;;;;;;;;;19.00;17.00;;;;;11.40;100.00;99957.88;5072215;28;45529;-67
2023/04/15 00:41:40;;;;;;;;;19.33;16.67;;;;;11.38;100.00;99962.75;5089769;27;45377;-68
2023/04/15 00:44:06;;;;;;;;;17.33;15.33;;;;;11.35;100.00;99953.06;5074208;28;45779;-69
2023/04/15 00:46:35;;;;;;;;;17.00;15.67;;;;;11.28;100.00;99953.16;5074356;27;45755;-71
2023/04/15 00:49:06;;;;;;;;;16.67;15.67;;;;;11.26;100.00;99952.56;5067426;27;45879;-67
2023/04/15 00:51:34;;;;;;;;;17.67;15.33;;;;;11.41;100.00;99965.88;5068145;28;45513;-68
2023/04/15 00:54:04;;;;;;;;;15.00;15.00;;;;;11.48;100.00;99961.13;5077486;27;46079;-67
2023/04/15 00:56:33;;;;;;;;;18.33;16.33;;;;;11.53;100.00;99945.84;5073466;28;45606;-68
2023/04/15 00:59:00;;;;;;;;;19.67;14.00;;;;;11.52;100.00;99955.97;5089786;27;45676;-68
2023/04/15 01:01:26;;;;;;;;;20.33;18.33;;;;;11.44;100.00;99948.91;5071619;28;45612;-68
2023/04/15 01:03:51;;;;;;;;;17.00;16.00;;;;;11.40;100.00;99944.13;5069132;28;45250;-69
2023/04/15 01:06:20;;;;;;;;;18.67;16.33;;;;;11.37;100.00;99948.19;5073420;27;45161;-66
2023/04/15 01:08:46;;;;;;;;;17.00;14.00;;;;;11.39;100.00;99946.06;5060025;27;45874;-69
2023/04/15 01:11:12;;;;;;;;;18.67;17.67;;;;;11.30;100.00;99947.44;5070416;28;45646;-68
2023/04/15 01:13:38;;;;;;;;;18.00;16.67;;;;;11.28;100.00;99944.91;5074380;28;45766;-67
2023/04/15 01:16:03;;;;;;;;;20.33;16.67;;;;;11.22;100.00;99945.84;5068281;27;48071;-67
2023/04/15 01:18:30;;;;;;;;;20.67;17.67;;;;;11.21;100.00;99937.84;5065776;27;45364;-66
2023/04/15 01:20:56;;;;;;;;;17.33;16.33;;;;;11.13;100.00;99942.59;5073582;27;45753;-68
2023/04/15 01:23:25;;;;;;;;;18.00;16.00;;;;;10.92;100.00;99938.44;5073878;27;45553;-67
2023/04/15 01:25:52;;;;;;;;;19.00;19.00;;;;;10.75;100.00;99940.16;5073795;27;45634;-67
2023/04/15 01:28:17;;;;;;;;;24.33;19.33;;;;;10.66;100.00;99947.88;5071084;27;45467;-67
2023/04/15 01:30:43;;;;;;;;;18.67;17.00;;;;;10.64;100.00;99946.41;5065989;28;45443;-68
2023/04/15 01:33:09;;;;;;;;;21.33;20.00;;;;;10.66;100.00;99956.09;5073923;27;45237;-68
2023/04/15 01:35:35;;;;;;;;;16.67;15.00;;;;;10.67;100.00;99955.00;5073496;27;46703;-67
2023/04/15 01:38:07;;;;;;;;;20.00;17.67;;;;;10.68;100.00;99955.88;5073659;28;45670;-69
2023/04/15 01:40:33;;;;;;;;;20.67;18.67;;;;;10.59;100.00;99961.63;5072095;28;45818;-68
2023/04/15 01:43:00;;;;;;;;;23.33;19.67;;;;;10.62;100.00;99968.56;5063745;28;45472;-71
2023/04/15 01:45:26;;;;;;;;;18.00;16.00;;;;;10.68;100.00;99973.13;5068648;28;46665;-69
2023/04/15 01:47:52;;;;;;;;;23.00;22.00;;;;;10.72;100.00;99976.28;5073193;27;45330;-68
2023/04/15 01:50:17;;;;;;;;;14.00;13.33;;;;;10.77;100.00;99981.91;5072836;27;45653;-70
2023/04/15 01:52:43;;;;;;;;;21.00;18.67;;;;;10.82;100.00;99984.78;5072022;27;45570;-69
2023/04/15 01:55:10;;;;;;;;;26.33;20.33;;;;;10.72;100.00;99957.09;5066083;27;45773;-69
2023/04/15 01:57:35;;;;;;;;;20.00;18.00;;;;;10.74;100.00;99969.47;5056247;27;45559;-70
2023/04/15 02:00:02;;;;;;;;;18.33;18.33;;;;;10.53;100.00;99975.44;5068599;28;45468;-68
2023/04/15 02:02:28;;;;;;;;;26.33;21.00;;;;;10.50;100.00;99992.34;5070548;28;47314;-68
2023/04/15 02:04:53;;;;;;;;;29.67;23.33;;;;;10.42;100.00;99997.03;5072319;28;46223;-68
2023/04/15 02:07:19;;;;;;;;;25.00;23.00;;;;;10.41;100.00;100010.97;5065859;27;45380;-69
2023/04/15 02:09:45;;;;;;;;;21.67;17.00;;;;;10.35;100.00;100001.75;5056435;27;45298;-70
2023/04/15 02:12:10;;;;;;;;;29.33;23.33;;;;;10.31;100.00;100008.72;5073437;28;45380;-69
2023/04/15 02:14:36;;;;;;;;;28.00;24.00;;;;;10.15;100.00;99998.31;5072140;27;46082;-68
2023/04/15 02:17:06;;;;;;;;;32.00;29.00;;;;;10.15;100.00;100012.03;5073304;27;45576;-68
2023/04/15 02:19:32;;;;;;;;;30.67;27.33;;;;;10.20;100.00;100028.66;5066037;27;45414;-70
2023/04/15 02:21:58;;;;;;;;;24.00;23.00;;;;;10.20;100.00;100029.47;5063366;28;46208;-69
2023/04/15 02:24:24;;;;;;;;;31.00;28.00;;;;;10.25;100.00;100034.28;5072660;27;45586;-69
2023/04/15 02:26:49;;;;;;;;;26.00;24.00;;;;;10.29;100.00;100027.28;5073461;27;45462;-70
2023/04/15 02:29:14;;;;;;;;;30.67;24.00;;;;;10.36;100.00;100032.72;5073135;27;46125;-70
2023/04/15 02:31:41;;;;;;;;;29.33;27.33;;;;;10.39;100.00;100035.88;5071936;27;45594;-69
2023/04/15 02:34:09;;;;;;;;;22.33;21.00;;;;;10.43;100.00;100033.50;5057253;28;45656;-70
2023/04/15 02:36:35;;;;;;;;;20.00;19.00;;;;;10.39;100.00;100027.66;5072528;27;45715;-68
2023/04/15 02:39:00;;;;;;;;;24.00;20.33;;;;;10.26;100.00;100014.03;5072311;27;45651;-69
2023/04/15 02:41:27;;;;;;;;;20.67;19.33;;;;;10.39;100.00;100035.88;5072352;28;45715;-69
2023/04/15 02:43:53;;;;;;;;;23.67;19.33;;;;;10.41;100.00;100033.72;5072618;27;46180;-69
2023/04/15 02:46:18;;;;;;;;;27.33;24.00;;;;;10.46;100.00;100041.28;5063371;27;45365;-71
2023/04/15 02:48:44;;;;;;;;;25.67;20.33;;;;;10.50;100.00;100041.69;5059135;28;45367;-70
2023/04/15 02:51:13;;;;;;;;;28.33;25.33;;;;;10.52;100.00;100050.50;5072742;27;45317;-70
2023/04/15 02:53:38;;;;;;;;;21.00;20.33;;;;;10.55;100.00;100050.06;5065533;27;45804;-69
2023/04/15 02:56:07;;;;;;;;;25.00;19.67;;;;;10.53;100.00;100052.19;5079005;27;45503;-68
2023/04/15 02:58:33;;;;;;;;;23.67;19.67;;;;;10.56;100.00;100054.47;5086200;27;45395;-70
2023/04/15 03:00:59;;;;;;;;;22.67;20.00;;;;;10.59;100.00;100063.09;5073366;27;45983;-70
2023/04/15 03:03:26;;;;;;;;;27.67;21.00;;;;;10.64;100.00;100065.16;5068001;28;46026;-70
2023/04/15 03:05:52;;;;;;;;;24.33;22.00;;;;;10.64;100.00;100065.16;5069798;27;45763;-69
2023/04/15 03:08:17;;;;;;;;;26.00;20.67;;;;;10.68;100.00;100069.13;5064697;27;45518;-71
2023/04/15 03:10:43;;;;;;;;;22.00;19.33;;;;;10.69;100.00;100072.69;5067011;27;45551;-68
2023/04/15 03:13:08;;;;;;;;;27.67;22.00;;;;;10.72;100.00;100078.59;5072501;27;45641;-68
2023/04/15 03:15:34;;;;;;;;;23.67;23.67;;;;;10.74;100.00;100083.84;5069381;28;45799;-70
2023/04/15 03:17:59;;;;;;;;;23.00;21.33;;;;;10.75;100.00;100077.31;5066447;27;45492;-70
2023/04/15 03:20:25;;;;;;;;;21.67;19.67;;;;;10.73;100.00;100080.28;5067173;28;45648;-68
2023/04/15 03:22:50;;;;;;;;;27.33;23.67;;;;;10.77;100.00;100092.44;5072434;28;46631;-71
2023/04/15 03:25:15;;;;;;;;;22.67;18.00;;;;;10.81;100.00;100086.50;5071896;27;45902;-71
2023/04/15 03:27:41;;;;;;;;;20.33;18.33;;;;;10.79;100.00;100089.47;5069343;27;45858;-72
2023/04/15 03:30:07;;;;;;;;;20.67;18.33;;;;;10.78;100.00;100091.38;5078780;27;45740;-69
2023/04/15 03:32:36;;;;;;;;;26.67;20.00;;;;;10.78;100.00;100087.81;5065254;28;46131;-70
2023/04/15 03:35:01;;;;;;;;;14.67;11.33;;;;;10.74;100.00;100087.41;5064555;28;45593;-69
2023/04/15 03:37:26;;;;;;;;;15.67;13.00;;;;;10.75;100.00;100085.53;5074810;27;45816;-71
2023/04/15 03:39:52;;;;;;;;;12.33;11.33;;;;;10.69;100.00;100087.25;5075362;27;45856;-71
2023/04/15 03:42:17;;;;;;;;;6.67;6.67;;;;;10.59;100.00;100068.56;5074679;28;45443;-69
2023/04/15 03:44:43;;;;;;;;;8.00;8.00;;;;;10.66;100.00;100089.59;5075987;27;45730;-70
2023/04/15 03:47:08;;;;;;;;;10.00;7.67;;;;;10.65;100.00;100088.78;5070499;28;45461;-69
2023/04/15 03:49:33;;;;;;;;;6.00;5.00;;;;;10.64;100.00;100087.09;5069724;27;45327;-70
2023/04/15 03:51:59;;;;;;;;;4.33;3.00;;;;;10.62;100.00;100104.84;5073340;28;45821;-69
2023/04/15 03:54:24;;;;;;;;;5.33;5.33;;;;;10.62;100.00;100091.97;5075157;27;45406;-70
2023/04/15 03:56:50;;;;;;;;;6.67;6.33;;;;;10.62;100.00;100094.72;5074429;28;45417;-69
2023/04/15 03:59:16;;;;;;;;;4.67;4.67;;;;;10.65;100.00;100113.44;5070358;27;45728;-70
2023/04/15 04:01:41;;;;;;;;;7.00;6.33;;;;;10.60;100.00;100105.06;5075079;27;46878;-68
2023/04/15 04:04:06;;;;;;;;;5.33;5.00;;;;;10.59;100.00;100098.72;5084378;27;45368;-70
2023/04/15 04:06:35;;;;;;;;;5.00;5.00;;;;;10.59;100.00;100114.34;5071252;27;45431;-70
2023/04/15 04:09:00;;;;;;;;;5.00;5.00;;;;;10.56;100.00;100103.84;5067704;28;45437;-68
2023/04/15 04:11:27;;;;;;;;;5.33;5.33;;;;;10.51;100.00;100109.13;5072997;28;47819;-69
2023/04/15 04:13:52;;;;;;;;;5.67;4.00;;;;;10.54;100.00;100116.94;5067732;28;45313;-71
2023/04/15 04:16:18;;;;;;;;;4.00;4.00;;;;;10.49;100.00;100111.28;5067862;28;45417;-70
2023/04/15 04:18:43;;;;;;;;;6.00;4.00;;;;;10.56;100.00;100123.03;5075083;28;45732;-70
2023/04/15 04:21:09;;;;;;;;;4.67;4.67;;;;;10.57;100.00;100125.56;5074603;28;47729;-70
2023/04/15 04:23:35;;;;;;;;;4.00;4.00;;;;;10.57;100.00;100120.06;5073258;28;45660;-68
2023/04/15 04:26:00;;;;;;;;;3.00;3.00;;;;;10.59;100.00;100126.16;5082406;27;45417;-69
2023/04/15 04:28:26;;;;;;;;;3.00;3.00;;;;;10.58;100.00;100135.47;5074736;28;45780;-69
2023/04/15 04:30:51;;;;;;;;;4.00;4.00;;;;;10.56;100.00;100143.06;5074677;28;45978;-70
2023/04/15 04:33:17;;;;;;;;;2.00;2.00;;;;;10.50;100.00;100137.63;5075021;28;45417;-69
2023/04/15 04:35:42;;;;;;;;;1.00;1.00;;;;;10.44;100.00;100130.31;5073163;27;45439;-70
2023/04/15 04:38:07;;;;;;;;;2.00;2.00;;;;;10.43;100.00;100134.94;5068505;27;45520;-70
2023/04/15 04:40:33;;;;;;;;;1.67;1.33;;;;;10.42;100.00;100131.38;5071921;28;47100;-67
2023/04/15 04:42:59;;;;;;;;;1.00;1.00;;;;;10.29;100.00;100119.66;5072535;27;45500;-68
2023/04/15 04:45:24;;;;;;;;;1.67;1.67;;;;;10.40;100.00;100143.59;5073951;28;45945;-68
2023/04/15 04:47:50;;;;;;;;;2.00;2.00;;;;;10.37;100.00;100158.63;5068992;27;45477;-68
2023/04/15 04:50:16;;;;;;;;;1.00;1.00;;;;;10.30;100.00;100140.50;5070869;28;45999;-70
2023/04/15 04:52:45;;;;;;;;;3.00;2.00;;;;;10.36;100.00;100162.41;5070301;27;45466;-71
2023/04/15 04:55:11;;;;;;;;;1.00;1.00;;;;;10.39;100.00;100161.97;5071080;28;45800;-70
2023/04/15 04:57:39;;;;;;;;;2.00;1.00;;;;;10.37;100.00;100168.72;5071564;28;45520;-68
2023/04/15 05:00:07;;;;;;;;;1.00;1.00;;;;;10.36;100.00;100167.91;5083249;27;46269;-68
2023/04/15 05:02:32;;;;;;;;;2.00;1.00;;;;;10.41;100.00;100187.25;5064479;27;45312;-69
2023/04/15 05:04:58;;;;;;;;;1.00;1.00;;;;;10.42;100.00;100186.19;5066255;28;45620;-69
2023/04/15 05:09:57;;;;;;;;;2.67;2.00;;;;;10.47;100.00;100206.63;5000416;28;45992;-79
2023/04/15 05:12:26;;;;;;;;;1.00;1.00;;;;;10.47;100.00;100206.63;4989573;28;45468;-75
2023/04/15 05:14:51;;;;;;;;;3.00;1.67;;;;;10.46;100.00;100213.16;4996256;28;45854;-74
2023/04/15 05:17:17;;;;;;;;;2.00;1.00;;;;;10.45;100.00;100216.94;4988298;28;45572;-76
2023/04/15 05:19:42;;;;;;;;;4.00;2.00;;;;;10.46;100.00;100224.13;4973286;28;48023;-76
2023/04/15 05:22:07;;;;;;;;;2.00;2.00;;;;;10.47;100.00;100231.31;4989456;28;46119;-76
2023/04/15 05:24:33;;;;;;;;;2.00;2.00;;;;;10.46;100.00;100237.84;4998777;28;45859;-77
2023/04/15 05:27:00;;;;;;;;;1.00;1.00;;;;;10.44;100.00;100229.00;5001601;28;45698;-77
2023/04/15 05:29:26;;;;;;;;;3.00;1.67;;;;;10.43;100.00;100233.63;4984079;28;45791;-76
2023/04/15 05:31:51;;;;;;;;;2.67;1.00;;;;;10.42;100.00;100251.97;4989391;28;45745;-74
2023/04/15 05:34:17;;;;;;;;;1.00;1.00;;;;;10.44;100.00;100256.41;4976962;28;45796;-73
2023/04/15 05:36:42;;;;;;;;;1.00;1.00;;;;;10.38;100.00;100250.72;4981046;28;45449;-73
2023/04/15 05:39:07;;;;;;;;;3.00;2.00;;;;;10.37;100.00;100268.25;4976448;28;47172;-73
2023/04/15 05:41:33;;;;;;;;;2.00;1.00;;;;;10.40;100.00;100265.09;4989169;28;45496;-77
2023/04/15 05:44:00;;;;;;;;;0.33;0.33;;;;;10.40;100.00;100273.31;4984610;28;45490;-81
2023/04/15 05:46:26;;;;;;;;;1.67;1.67;;;;;10.26;100.00;100249.72;4989512;28;45929;-76
2023/04/15 05:48:51;;;;;;;;;1.67;1.67;;;;;10.41;100.00;100272.22;4982857;28;46353;-74
2023/04/15 05:51:17;;;;;;;;;3.67;1.67;;;;;10.51;100.00;100279.13;4987448;28;46081;-74
2023/04/15 05:53:42;;;;;;;;;3.67;2.33;;;;;10.56;100.00;100290.28;4985386;28;46273;-74
2023/04/15 05:56:08;;;;;;;;;3.00;2.00;;;;;10.56;100.00;100293.03;4988184;28;45741;-75
2023/04/15 05:58:33;;;;;;;;;2.00;1.00;;;;;10.59;100.00;100298.91;4991042;28;46107;-75
2023/04/15 06:00:59;;;;;;;;;2.33;2.00;;;;;10.54;100.00;100293.25;4983985;28;46446;-74
2023/04/15 06:03:24;;;;;;;;;3.67;2.33;;;;;10.68;100.00;100315.13;4983772;28;46636;-74
2023/04/15 06:05:50;;;;;;;;;5.00;2.00;;;;;10.71;100.00;100325.63;4990302;28;45834;-78
2023/04/15 06:08:15;;;;;;;;;3.00;3.00;;;;;10.73;100.00;100321.63;4990228;28;45876;-78
2023/04/15 06:10:41;;;;;;;;;12.33;9.67;;;;;10.76;100.00;100325.81;4988354;28;45538;-74
2023/04/15 06:13:06;;;;;;;;;7.00;7.00;;;;;10.86;100.00;100339.06;4987796;28;45453;-75
2023/04/15 06:15:32;;;;;;;;;7.00;7.00;;;;;10.91;100.00;100334.59;4962847;28;45712;-74
2023/04/15 06:17:58;;;;;;;;;3.00;2.00;;;;;11.01;100.00;100349.72;4985618;28;47084;-74
2023/04/15 06:20:23;;;;;;;;;3.00;3.00;;;;;11.06;100.00;100353.47;4973050;28;45794;-72
2023/04/15 06:22:48;;;;;;;;;2.33;2.33;;;;;11.09;100.00;100364.00;4972681;28;45865;-77
2023/04/15 06:25:14;;;;;;;;;6.67;5.33;;;;;11.07;100.00;100360.63;4999475;28;45901;-76
2023/04/15 06:27:40;;;;;;;;;1.00;1.00;;;;;11.08;100.00;100372.47;4990598;28;45411;-77
2023/04/15 06:30:06;;;;;;;;;9.67;8.00;;;;;11.00;100.00;100361.75;4974476;28;45856;-78
2023/04/15 06:32:41;;;;;;;;;1.00;1.00;;;;;11.07;100.00;100379.84;4980929;28;46574;-77
2023/04/15 06:35:07;;;;;;;;;3.33;3.00;;;;;11.06;100.00;100383.66;4980327;28;46923;-78
2023/04/15 06:37:32;;;;;;;;;5.00;3.00;;;;;11.12;100.00;100395.66;4977711;28;47083;-76
2023/04/15 06:40:03;;;;;;;;;2.67;2.00;;;;;11.18;100.00;100400.25;4995349;28;45511;-77
2023/04/15 06:42:29;;;;;;;;;3.67;2.67;;;;;11.04;100.00;100379.47;4989349;28;45597;-77
2023/04/15 06:44:55;;;;;;;;;2.67;2.67;;;;;11.25;100.00;100409.28;4980392;28;46312;-75
2023/04/15 06:47:20;;;;;;;;;3.00;3.00;;;;;11.25;100.00;100414.78;4989280;28;46552;-76
2023/04/15 06:49:49;;;;;;;;;1.00;1.00;;;;;11.20;100.00;100424.75;4997680;28;46071;-76
2023/04/15 06:52:15;;;;;;;;;3.67;2.67;;;;;11.00;100.00;100390.00;4990646;28;45973;-74
2023/04/15 06:54:43;;;;;;;;;3.33;2.00;;;;;11.15;100.00;100432.78;4970889;28;46721;-76
2023/04/15 06:57:12;;;;;;;;;1.00;1.00;;;;;11.15;100.00;100430.88;4982503;28;46739;-75
2023/04/15 06:59:37;;;;;;;;;3.00;1.33;;;;;11.10;100.00;100428.78;4985198;28;45811;-77
2023/04/15 07:02:03;;;;;;;;;0.67;0.67;;;;;11.16;100.00;100440.81;4990895;28;45882;-77
2023/04/15 07:04:29;;;;;;;;;1.33;1.00;;;;;11.19;100.00;100447.75;4987726;28;46145;-76
2023/04/15 07:06:55;;;;;;;;;1.00;1.00;;;;;11.18;100.00;100457.88;4989678;28;45843;-76
2023/04/15 07:09:22;;;;;;;;;1.00;1.00;;;;;11.01;100.00;100441.09;4981637;28;45668;-76
2023/04/15 07:11:48;;;;;;;;;3.00;1.00;;;;;10.99;100.00;100458.84;4984405;28;45795;-76
2023/04/15 07:14:14;;;;;;;;;1.67;1.00;;;;;10.97;100.00;100464.53;4973314;28;45935;-76
2023/04/15 07:16:39;;;;;;;;;0.33;0.33;;;;;11.03;100.00;100468.31;4995332;28;45782;-77
2023/04/15 07:19:05;;;;;;;;;1.00;1.00;;;;;10.99;100.00;100478.03;4988706;28;45750;-77
2023/04/15 07:21:31;;;;;;;;;1.00;1.00;;;;;10.91;100.00;100477.25;4981941;28;45428;-76
2023/04/15 07:23:57;;;;;;;;;1.00;1.00;;;;;11.00;100.00;100488.81;4979507;28;45636;-78
2023/04/15 07:26:23;;;;;;;;;1.00;1.00;;;;;10.96;100.00;100473.84;4994363;28;46444;-76
2023/04/15 07:28:48;;;;;;;;;0.67;0.67;;;;;11.11;100.00;100510.09;4986935;28;45634;-77
2023/04/15 07:31:15;;;;;;;;;1.67;1.00;;;;;11.07;100.00;100506.09;4984580;28;46137;-75
2023/04/15 07:33:40;;;;;;;;;1.00;1.00;;;;;11.13;100.00;100507.94;4986021;28;45925;-78
2023/04/15 07:36:06;;;;;;;;;0.00;0.00;;;;;11.04;100.00;100498.28;4986954;28;45961;-73
2023/04/15 07:38:31;;;;;;;;;1.00;1.00;;;;;11.15;100.00;100521.44;4966524;28;45466;-76
2023/04/15 07:40:57;;;;;;;;;2.67;1.67;;;;;10.96;100.00;100501.28;4975484;28;45665;-76
2023/04/15 07:43:25;;;;;;;;;1.00;1.00;;;;;11.07;100.00;100532.69;4996468;28;45459;-78
2023/04/15 07:45:57;;;;;;;;;23.00;19.33;;;;;10.92;100.00;100516.50;4982698;28;46012;-84
2023/04/15 07:48:22;;;;;;;;;1.00;1.00;;;;;11.07;100.00;100547.25;4986064;28;45551;-75
2023/04/15 07:50:48;;;;;;;;;1.33;1.00;;;;;11.08;100.00;100554.44;4986416;28;46217;-78
2023/04/15 07:53:14;;;;;;;;;2.00;0.00;;;;;11.03;100.00;100558.88;4970487;28;45928;-74
2023/04/15 07:55:39;;;;;;;;;0.00;0.00;;;;;11.06;100.00;100564.78;4994218;28;45495;-73
2023/04/15 07:58:05;;;;;;;;;0.33;0.33;;;;;11.06;100.00;100578.53;4991308;28;45865;-73
2023/04/15 08:00:30;;;;;;;;;0.00;0.00;;;;;11.03;100.00;100561.63;4975731;28;45865;-76
2023/04/15 08:02:58;;;;;;;;;0.00;0.00;;;;;11.16;100.00;100585.44;4987888;28;45748;-76
2023/04/15 08:05:24;;;;;;;;;3.00;0.00;;;;;11.20;100.00;100590.28;4987556;28;46306;-75
2023/04/15 08:07:50;;;;;;;;;0.00;0.00;;;;;11.12;100.00;100577.66;4988476;28;45777;-78
2023/04/15 08:10:16;;;;;;;;;0.00;0.00;;;;;11.09;100.00;100575.34;4971189;28;46206;-77
2023/04/15 08:12:41;;;;;;;;;0.00;0.00;;;;;10.93;100.00;100568.41;4986410;28;45872;-76
2023/04/15 08:15:08;;;;;;;;;0.00;0.00;;;;;11.03;100.00;100600.03;4987685;28;45687;-78
2023/04/15 08:17:33;;;;;;;;;0.00;0.00;;;;;11.05;100.00;100593.28;4985993;28;45766;-77
2023/04/15 08:19:59;;;;;;;;;0.00;0.00;;;;;11.01;100.00;100613.97;4978095;28;45720;-75
2023/04/15 08:22:24;;;;;;;;;0.67;0.67;;;;;10.84;100.00;100593.53;5000299;28;45826;-78
2023/04/15 08:24:50;;;;;;;;;0.00;0.00;;;;;10.87;100.00;100596.72;4985545;28;48006;-77
2023/04/15 08:27:16;;;;;;;;;2.00;1.00;;;;;11.24;100.00;100640.94;4979903;28;46197;-78
2023/04/15 08:29:41;;;;;;;;;2.00;1.00;;;;;11.38;100.00;100614.28;4999764;28;45817;-79
2023/04/15 08:32:08;;;;;;;;;2.00;0.00;;;;;11.76;100.00;100621.69;4975667;28;45920;-78
2023/04/15 08:34:34;;;;;;;;;1.00;1.00;;;;;12.31;100.00;100634.91;4976003;28;48037;-77
2023/04/15 08:36:59;;;;;;;;;2.00;1.00;;;;;12.74;100.00;100644.28;4999837;28;45464;-86
2023/04/15 08:39:26;;;;;;;;;2.00;1.00;;;;;13.13;100.00;100660.63;5006411;28;45323;-85
2023/04/15 08:42:00;;;;;;;;;1.33;1.33;;;;;13.25;100.00;100653.31;4997453;28;45834;-86
2023/04/15 08:44:28;;;;;;;;;1.00;1.00;;;;;13.28;100.00;100649.22;4996869;28;45456;-87
2023/04/15 08:46:55;;;;;;;;;0.33;0.33;;;;;13.31;100.00;100673.56;4997095;28;45388;-80
2023/04/15 08:49:26;;;;;;;;;0.67;0.67;;;;;13.33;100.00;100677.78;5008048;28;45876;-84
2023/04/15 08:51:51;;;;;;;;;1.67;0.67;;;;;13.20;100.00;100662.25;4994340;28;45438;-84
2023/04/15 08:54:18;;;;;;;;;1.00;1.00;;;;;13.06;100.00;100656.03;4996681;28;46559;-84
2023/04/15 08:56:46;;;;;;;;;0.67;0.67;;;;;13.20;100.00;100687.03;5011404;28;45472;-86
2023/04/15 08:59:12;;;;;;;;;1.00;1.00;;;;;12.97;100.00;100689.59;4987106;28;45516;-79
2023/04/15 09:01:38;;;;;;;;;0.00;0.00;;;;;12.68;100.00;100662.53;5003017;28;45523;-80
2023/04/15 09:04:06;;;;;;;;;2.33;1.00;;;;;12.72;100.00;100698.69;4989203;28;45773;-78
2023/04/15 09:06:32;;;;;;;;;0.00;0.00;;;;;12.50;100.00;100685.34;4995002;28;45673;-81
2023/04/15 09:08:58;;;;;;;;;0.67;0.67;;;;;12.52;100.00;100707.94;4999429;28;45829;-80
2023/04/15 09:11:24;;;;;;;;;1.00;1.00;;;;;12.42;100.00;100715.84;4992667;28;45414;-80
2023/04/15 09:13:49;;;;;;;;;1.33;1.33;;;;;12.46;100.00;100733.59;4991931;28;47241;-81
2023/04/15 09:16:15;;;;;;;;;2.67;1.67;;;;;12.59;100.00;100734.56;4998779;28;45723;-82
2023/04/15 09:18:52;;;;;;;;;0.33;0.33;;;;;12.52;100.00;100723.63;4974455;28;46043;-81
2023/04/15 09:21:24;;;;;;;;;1.00;1.00;;;;;12.46;100.00;100717.09;4996081;28;45465;-81
2023/04/15 09:24:01;;;;;;;;;1.67;0.67;;;;;12.73;100.00;100752.66;4991319;28;46221;-80
2023/04/15 09:26:36;;;;;;;;;0.33;0.33;;;;;12.74;100.00;100726.00;4993884;28;45520;-79
2023/04/15 09:29:08;;;;;;;;;1.00;1.00;;;;;12.99;100.00;100723.25;4987985;28;45870;-77
2023/04/15 09:31:33;;;;;;;;;0.33;0.33;;;;;13.34;100.00;100736.50;4982535;28;45423;-76
2023/04/15 09:33:59;;;;;;;;;1.33;1.33;;;;;13.81;100.00;100772.66;4991088;28;45804;-76
2023/04/15 09:36:25;;;;;;;;;0.33;0.33;;;;;13.91;100.00;100761.09;4978521;28;45887;-77
2023/04/15 09:38:58;;;;;;;;;0.67;0.67;;;;;13.90;100.00;100742.88;4980187;28;45770;-77
2023/04/15 09:41:48;;;;;;;;;0.00;0.00;;;;;14.20;100.00;100788.94;4989830;28;45524;-77
2023/04/15 09:44:33;;;;;;;;;0.00;0.00;;;;;14.54;100.00;100792.09;4986437;28;46403;-78
2023/04/15 09:46:59;;;;;;;;;0.67;0.00;;;;;14.64;100.00;100801.53;4988994;28;45769;-79
2023/04/15 09:49:25;;;;;;;;;1.33;1.33;;;;;14.76;100.00;100800.72;4970379;28;45837;-78
2023/04/15 09:52:00;;;;;;;;;0.00;0.00;;;;;14.81;100.00;100811.91;4996812;28;45514;-83
2023/04/15 09:54:35;;;;;;;;;1.33;1.00;;;;;15.18;100.00;100820.88;4999204;28;45400;-79
2023/04/15 09:57:12;;;;;;;;;1.00;1.00;;;;;15.22;100.00;100807.41;4986200;28;45699;-81
2023/04/15 09:59:37;;;;;;;;;1.00;1.00;;;;;15.42;100.00;100809.00;4970979;28;45751;-78
2023/04/15 10:02:14;;;;;;;;;1.33;1.00;;;;;15.60;100.00;100819.09;4999230;28;45475;-79
2023/04/15 10:04:40;;;;;;;;;2.00;1.00;;;;;15.65;100.00;100820.06;4955072;28;47237;-79
2023/04/15 10:07:10;;;;;;;;;1.67;1.00;;;;;15.91;100.00;100812.34;4978307;28;45781;-80
2023/04/15 10:09:37;;;;;;;;;2.00;2.00;;;;;16.46;100.00;100846.16;4994241;28;45649;-78
2023/04/15 10:12:04;;;;;;;;;1.00;1.00;;;;;16.74;100.00;100818.47;4970588;28;45726;-81
2023/04/15 10:14:37;;;;;;;;;1.00;1.00;;;;;16.66;100.00;100851.25;4982973;28;46637;-80
2023/04/15 10:17:04;;;;;;;;;3.00;3.00;;;;;16.88;100.00;100845.91;4964235;28;45575;-78
2023/04/15 10:19:36;;;;;;;;;5.00;3.00;;;;;16.84;100.00;100822.53;4971313;28;45592;-79
2023/04/15 10:22:05;;;;;;;;;7.33;6.00;;;;;17.27;100.00;100857.94;4994670;28;45542;-80
2023/04/15 10:24:34;;;;;;;;;16.67;15.67;;;;;17.25;100.00;100831.59;4997030;28;46556;-80
2023/04/15 10:27:04;;;;;;;;;17.67;14.33;;;;;17.36;100.00;100840.91;4982378;28;46077;-81
2023/04/15 10:29:30;;;;;;;;;14.67;13.67;;;;;17.18;100.00;100865.00;4989258;28;45711;-79
2023/04/15 10:31:57;;;;;;;;;6.67;6.67;;;;;16.83;100.00;100856.88;4984854;28;45507;-77
2023/04/15 10:34:23;;;;;;;;;6.00;4.33;;;;;16.68;100.00;100862.94;4994065;28;46574;-79
2023/04/15 10:36:49;;;;;;;;;44.33;36.67;;;;;16.91;100.00;100859.25;4988791;28;45634;-78
2023/04/15 10:39:33;;;;;;;;;3.00;2.00;;;;;17.27;100.00;100884.84;4961770;28;45877;-79
2023/04/15 10:42:10;;;;;;;;;76.50;59.00;;;;;17.46;100.00;100882.69;4989783;28;45543;-79
2023/04/15 10:44:37;;;;;;;;;2.33;2.33;;;;;17.30;100.00;100889.88;4990857;28;46608;-78
2023/04/15 10:47:13;;;;;;;;;51.33;40.33;;;;;17.17;100.00;100901.28;4974888;28;45862;-80
2023/04/15 10:49:57;;;;;;;;;24.67;19.33;;;;;16.83;100.00;100898.41;4964404;28;45465;-80
2023/04/15 10:52:26;;;;;;;;;32.67;30.00;;;;;16.75;100.00;100892.19;4989731;28;45476;-81
2023/04/15 10:55:17;;;;;;;;;52.00;44.33;;;;;16.98;100.00;100907.03;4995487;28;45597;-81
2023/04/15 10:57:44;;;;;;;;;59.67;45.00;;;;;16.96;100.00;100887.06;4990686;28;45780;-80
2023/04/15 11:00:14;;;;;;;;;5.67;5.33;;;;;17.25;100.00;100911.97;4972626;28;45836;-81
2023/04/15 11:02:47;;;;;;;;;19.67;16.33;;;;;17.25;100.00;100898.13;4952669;28;46873;-79
2023/04/15 11:05:16;;;;;;;;;7.67;5.00;;;;;17.24;100.00;100897.25;4969534;28;45568;-80
2023/04/15 11:08:12;;;;;;;;;9.67;9.67;;;;;17.24;100.00;100929.69;4974809;28;45507;-80
2023/04/15 11:10:37;;;;;;;;;7.00;6.67;;;;;17.10;100.00;100927.22;4954031;28;45789;-80
2023/04/15 11:13:13;;;;;;;;;13.33;11.67;;;;;17.18;100.00;100941.78;4960477;28;46109;-78